Time,TemperatureF,DewpointF,PressureIn,WindDirection,WindDirectionDegrees,WindSpeedMPH,WindSpeedGustMPH,Humidity,HourlyPrecipIn,Conditions,Clouds,dailyrainin,SoftwareType,DateUTC
2013-01-27 00:00:00,18.1,-11.9,28.38,ESE,116,0.0,2.0,25,0.00,CLR,,0.00,WeatherDisplay:10.37,2013-01-27 05:00:00,
2013-01-27 00:05:00,18.3,-11.7,28.38,SE,134,0.0,4.0,25,0.00,CLR,,0.00,WeatherDisplay:10.37,2013-01-27 05:05:00,
2013-01-27 00:10:00,18.5,-11.5,28.38,SE,129,0.0,2.0,25,0.00,CLR,,0.00,WeatherDisplay:10.37,2013-01-27 05:10:00,
2013-01-27 00:15:00,18.1,-11.9,28.38,ESE,116,0.0,0.0,25,0.00,CLR,,0.00,WeatherDisplay:10.37,2013-01-27 05:15:00,
2013-01-27 00:20:00,17.8,-12.2,28.38,ESE,116,0.0,0.0,25,0.00,CLR,,0.00,WeatherDisplay:10.37,2013-01-27 05:20:00,
2013-01-27 00:25:00,17.6,-11.5,28.35,ESE,116,0.0,0.0,26,0.00,CLR,,0.00,WeatherDisplay:10.37,2013-01-27 05:25:00,
2013-01-27 00:30:00,17.4,-11.7,28.35,ESE,116,0.0,0.0,26,0.00,CLR,,0.00,WeatherDisplay:10.37,2013-01-27 05:30:00,
2013-01-27 00:35:00,17.6,-11.5,28.35,ESE,118,0.0,3.0,26,0.00,CLR,,0.00,WeatherDisplay:10.37,2013-01-27 05:35:00,
2013-01-27 00:40:00,17.6,-11.5,28.35,ESE,121,0.0,0.0,26,0.00,CLR,,0.00,WeatherDisplay:10.37,2013-01-27 05:40:00,
2013-01-27 00:45:00,17.1,-12.0,28.35,ESE,117,0.0,0.0,26,0.00,CLR,,0.00,WeatherDisplay:10.37,2013-01-27 05:45:00,
2013-01-27 00:50:00,16.7,-12.3,28.35,ESE,112,0.0,0.0,26,0.00,CLR,,0.00,WeatherDisplay:10.37,2013-01-27 05:50:00,
2013-01-27 00:55:00,16.7,-12.3,28.35,ESE,112,0.0,0.0,26,0.00,CLR,,0.00,WeatherDisplay:10.37,2013-01-27 05:55:00,
2013-01-27 01:00:00,16.9,-12.2,28.35,ESE,112,0.0,0.0,26,0.00,CLR,,0.00,WeatherDisplay:10.37,2013-01-27 06:00:00,
2013-01-27 01:10:00,17.4,-10.2,28.35,ESE,112,0.0,0.0,28,0.00,CLR,,0.00,WeatherDisplay:10.37,2013-01-27 06:10:00,
2013-01-27 01:15:00,17.4,-10.2,28.35,ESE,112,0.0,0.0,28,0.00,CLR,,0.00,WeatherDisplay:10.37,2013-01-27 06:15:00,
2013-01-27 01:20:00,17.6,-10.0,28.35,ESE,112,0.0,0.0,28,0.00,CLR,,0.00,WeatherDisplay:10.37,2013-01-27 06:20:00,
2013-01-27 01:25:00,17.4,-10.2,28.35,ESE,112,0.0,0.0,28,0.00,CLR,,0.00,WeatherDisplay:10.37,2013-01-27 06:25:00,
2013-01-27 01:30:00,17.4,-10.2,28.35,ESE,112,0.0,0.0,28,0.00,CLR,,0.00,WeatherDisplay:10.37,2013-01-27 06:30:00,
2013-01-27 01:35:00,17.4,-10.2,28.35,ESE,112,0.0,0.0,28,0.00,CLR,,0.00,WeatherDisplay:10.37,2013-01-27 06:35:00,
2013-01-27 01:40:00,17.2,-10.4,28.35,ESE,112,0.0,0.0,28,0.00,CLR,,0.00,WeatherDisplay:10.37,2013-01-27 06:40:00,
2013-01-27 01:45:00,17.2,-10.4,28.35,ESE,112,0.0,0.0,28,0.00,CLR,,0.00,WeatherDisplay:10.37,2013-01-27 06:45:00,
2013-01-27 01:50:00,17.2,-10.4,28.35,ESE,112,0.0,0.0,28,0.00,CLR,,0.00,WeatherDisplay:10.37,2013-01-27 06:50:00,
2013-01-27 01:55:00,17.1,-10.5,28.35,ESE,112,0.0,3.0,28,0.00,CLR,,0.00,WeatherDisplay:10.37,2013-01-27 06:55:00,
2013-01-27 02:00:00,17.2,-10.4,28.35,ESE,112,0.0,3.0,28,0.00,CLR,,0.00,WeatherDisplay:10.37,2013-01-27 07:00:00,
2013-01-27 02:05:00,17.4,-10.2,28.35,ESE,122,1.0,3.0,28,0.00,CLR,,0.00,WeatherDisplay:10.37,2013-01-27 07:05:00,
2013-01-27 02:15:00,18.1,-8.2,28.35,SSE,147,2.0,4.0,30,0.00,CLR,,0.00,WeatherDisplay:10.37,2013-01-27 07:15:00,
2013-01-27 02:20:00,18.1,-9.6,28.35,SE,138,0.0,6.0,28,0.00,CLR,,0.00,WeatherDisplay:10.37,2013-01-27 07:20:00,
2013-01-27 02:25:00,18.2,-9.5,28.32,SE,132,0.0,3.0,28,0.00,CLR,,0.00,WeatherDisplay:10.37,2013-01-27 07:25:00,
2013-01-27 02:30:00,18.3,-9.4,28.32,ESE,123,2.0,4.0,28,0.00,CLR,,0.00,WeatherDisplay:10.37,2013-01-27 07:30:00,
2013-01-27 02:35:00,18.7,-9.1,28.32,ESE,112,2.0,4.0,28,0.00,CLR,,0.00,WeatherDisplay:10.37,2013-01-27 07:35:00,
2013-01-27 02:40:00,19.0,-8.9,28.35,ESE,111,3.0,5.0,28,0.00,CLR,,0.00,WeatherDisplay:10.37,2013-01-27 07:40:00,
2013-01-27 02:45:00,19.2,-8.6,28.35,ESE,114,2.0,4.0,28,0.00,CLR,,0.00,WeatherDisplay:10.37,2013-01-27 07:45:00,
2013-01-27 02:50:00,19.4,-8.5,28.35,SE,131,3.0,6.0,28,0.00,CLR,,0.00,WeatherDisplay:10.37,2013-01-27 07:50:00,
2013-01-27 02:55:00,19.6,-9.1,28.38,SE,144,2.0,6.0,27,0.00,CLR,,0.00,WeatherDisplay:10.37,2013-01-27 07:55:00,
2013-01-27 03:00:00,19.8,-8.9,28.38,SE,144,2.0,4.0,27,0.00,CLR,,0.00,WeatherDisplay:10.37,2013-01-27 08:00:00,
2013-01-27 03:10:00,20.0,-8.7,28.38,SE,146,0.0,2.0,27,0.00,CLR,,0.00,WeatherDisplay:10.37,2013-01-27 08:10:00,
2013-01-27 03:15:00,20.1,-8.6,28.38,SE,146,1.0,3.0,27,0.00,CLR,,0.00,WeatherDisplay:10.37,2013-01-27 08:15:00,
2013-01-27 03:20:00,19.9,-8.7,28.38,SE,146,0.0,3.0,27,0.00,CLR,,0.00,WeatherDisplay:10.37,2013-01-27 08:20:00,
2013-01-27 03:25:00,19.9,-8.7,28.38,SE,146,0.0,3.0,27,0.00,CLR,,0.00,WeatherDisplay:10.37,2013-01-27 08:25:00,
2013-01-27 03:30:00,19.8,-8.9,28.38,SE,132,2.0,4.0,27,0.00,CLR,,0.00,WeatherDisplay:10.37,2013-01-27 08:30:00,
2013-01-27 03:35:00,19.7,-8.9,28.38,ESE,114,2.0,4.0,27,0.00,CLR,,0.00,WeatherDisplay:10.37,2013-01-27 08:35:00,
2013-01-27 03:40:00,19.6,-9.1,28.38,ESE,110,2.0,4.0,27,0.00,CLR,,0.00,WeatherDisplay:10.37,2013-01-27 08:40:00,
2013-01-27 03:45:00,19.4,-8.5,28.38,ESE,110,1.0,4.0,28,0.00,CLR,,0.00,WeatherDisplay:10.37,2013-01-27 08:45:00,
2013-01-27 03:50:00,19.2,-8.6,28.38,SE,124,0.0,0.0,28,0.00,CLR,,0.00,WeatherDisplay:10.37,2013-01-27 08:50:00,
2013-01-27 03:55:00,19.0,-8.8,28.35,SE,132,0.0,3.0,28,0.00,CLR,,0.00,WeatherDisplay:10.37,2013-01-27 08:55:00,
2013-01-27 04:00:00,18.8,-9.0,28.35,ESE,119,0.0,4.0,28,0.00,CLR,,0.00,WeatherDisplay:10.37,2013-01-27 09:00:00,
2013-01-27 04:05:00,18.7,-9.1,28.35,ESE,112,0.0,4.0,28,0.00,CLR,,0.00,WeatherDisplay:10.37,2013-01-27 09:05:00,
2013-01-27 04:10:00,18.5,-9.3,28.38,ESE,112,0.0,3.0,28,0.00,CLR,,0.00,WeatherDisplay:10.37,2013-01-27 09:10:00,
2013-01-27 04:15:00,18.4,-9.3,28.38,ESE,119,0.0,4.0,28,0.00,CLR,,0.00,WeatherDisplay:10.37,2013-01-27 09:15:00,
2013-01-27 04:20:00,18.1,-9.6,28.38,ESE,119,3.0,5.0,28,0.00,CLR,,0.00,WeatherDisplay:10.37,2013-01-27 09:20:00,
2013-01-27 04:25:00,18.0,-9.7,28.35,ESE,111,2.0,5.0,28,0.00,CLR,,0.00,WeatherDisplay:10.37,2013-01-27 09:25:00,
2013-01-27 04:30:00,17.9,-9.8,28.35,ESE,109,0.0,4.0,28,0.00,CLR,,0.00,WeatherDisplay:10.37,2013-01-27 09:30:00,
2013-01-27 04:35:00,18.0,-8.3,28.35,ESE,111,2.0,4.0,30,0.00,CLR,,0.00,WeatherDisplay:10.37,2013-01-27 09:35:00,
2013-01-27 04:40:00,18.1,-8.2,28.35,ESE,116,3.0,4.0,30,0.00,CLR,,0.00,WeatherDisplay:10.37,2013-01-27 09:40:00,
2013-01-27 04:45:00,18.3,-8.0,28.35,ESE,116,2.0,4.0,30,0.00,CLR,,0.00,WeatherDisplay:10.37,2013-01-27 09:45:00,
2013-01-27 04:55:00,18.6,-7.7,28.35,ESE,123,2.0,4.0,30,0.00,CLR,,0.00,WeatherDisplay:10.37,2013-01-27 09:55:00,
2013-01-27 05:00:00,18.8,-7.6,28.35,SE,140,2.0,6.0,30,0.00,CLR,,0.00,WeatherDisplay:10.37,2013-01-27 10:00:00,
2013-01-27 05:05:00,19.0,-7.4,28.35,SSE,152,5.0,6.0,30,0.00,CLR,,0.00,WeatherDisplay:10.37,2013-01-27 10:05:00,
2013-01-27 05:10:00,19.0,-7.4,28.35,SSE,155,2.0,5.0,30,0.00,CLR,,0.00,WeatherDisplay:10.37,2013-01-27 10:10:00,
2013-01-27 05:15:00,19.0,-7.4,28.35,SSE,152,5.0,6.0,30,0.00,CLR,,0.00,WeatherDisplay:10.37,2013-01-27 10:15:00,
2013-01-27 05:20:00,18.9,-7.5,28.35,SSE,147,5.0,8.0,30,0.00,CLR,,0.00,WeatherDisplay:10.37,2013-01-27 10:20:00,
2013-01-27 05:25:00,18.7,-9.1,28.35,SE,145,3.0,4.0,28,0.00,CLR,,0.00,WeatherDisplay:10.37,2013-01-27 10:25:00,
2013-01-27 05:30:00,18.3,-9.4,28.35,SE,146,2.0,5.0,28,0.00,CLR,,0.00,WeatherDisplay:10.37,2013-01-27 10:30:00,
2013-01-27 05:35:00,18.1,-8.2,28.35,SE,144,2.0,4.0,30,0.00,CLR,,0.00,WeatherDisplay:10.37,2013-01-27 10:35:00,
2013-01-27 05:40:00,18.1,-8.2,28.35,ESE,107,3.0,6.0,30,0.00,CLR,,0.00,WeatherDisplay:10.37,2013-01-27 10:40:00,
2013-01-27 05:45:00,18.2,-8.1,28.35,East,89,2.0,5.0,30,0.00,CLR,,0.00,WeatherDisplay:10.37,2013-01-27 10:45:00,
2013-01-27 05:50:00,18.1,-8.2,28.35,East,82,3.0,6.0,30,0.00,CLR,,0.00,WeatherDisplay:10.37,2013-01-27 10:50:00,
2013-01-27 05:55:00,18.1,-8.2,28.35,East,97,2.0,6.0,30,0.00,CLR,,0.00,WeatherDisplay:10.37,2013-01-27 10:55:00,
2013-01-27 06:00:00,18.0,-8.3,28.35,ESE,103,3.0,6.0,30,0.00,CLR,,0.00,WeatherDisplay:10.37,2013-01-27 11:00:00,
2013-01-27 06:05:00,17.8,-8.5,28.35,East,97,2.0,5.0,30,0.00,CLR,,0.00,WeatherDisplay:10.37,2013-01-27 11:05:00,
2013-01-27 06:10:00,17.8,-8.5,28.35,ESE,110,3.0,5.0,30,0.00,CLR,,0.00,WeatherDisplay:10.37,2013-01-27 11:10:00,
2013-01-27 06:15:00,17.7,-8.5,28.35,ESE,116,3.0,6.0,30,0.00,CLR,,0.00,WeatherDisplay:10.37,2013-01-27 11:15:00,
2013-01-27 06:20:00,17.8,-8.5,28.35,ESE,110,3.0,6.0,30,0.00,CLR,,0.00,WeatherDisplay:10.37,2013-01-27 11:20:00,
2013-01-27 06:25:00,17.8,-6.5,28.35,ESE,112,3.0,6.0,33,0.00,CLR,,0.00,WeatherDisplay:10.37,2013-01-27 11:25:00,
2013-01-27 06:30:00,17.7,-7.9,28.35,SE,128,0.0,6.0,31,0.00,CLR,,0.00,WeatherDisplay:10.37,2013-01-27 11:30:00,
2013-01-27 06:35:00,17.6,-6.6,28.35,ESE,114,2.0,5.0,33,0.00,CLR,,0.00,WeatherDisplay:10.37,2013-01-27 11:35:00,
2013-01-27 06:40:00,17.8,-6.5,28.35,ESE,108,3.0,6.0,33,0.00,CLR,,0.00,WeatherDisplay:10.37,2013-01-27 11:40:00,
2013-01-27 06:45:00,17.8,-6.5,28.35,East,97,3.0,6.0,33,0.00,CLR,,0.00,WeatherDisplay:10.37,2013-01-27 11:45:00,
2013-01-27 06:50:00,18.0,-6.4,28.35,ESE,105,3.0,6.0,33,0.00,CLR,,0.00,WeatherDisplay:10.37,2013-01-27 11:50:00,
2013-01-27 06:55:00,18.0,-6.4,28.35,ESE,111,0.0,6.0,33,0.00,CLR,,0.00,WeatherDisplay:10.37,2013-01-27 11:55:00,
2013-01-27 07:00:00,17.8,-6.5,28.35,ESE,111,0.0,4.0,33,0.00,CLR,,0.00,WeatherDisplay:10.37,2013-01-27 12:00:00,
2013-01-27 07:05:00,17.8,-8.5,28.35,SE,129,3.0,4.0,30,0.00,CLR,,0.00,WeatherDisplay:10.37,2013-01-27 12:05:00,
2013-01-27 07:10:00,17.8,-8.5,28.35,SE,135,3.0,6.0,30,0.00,CLR,,0.00,WeatherDisplay:10.37,2013-01-27 12:10:00,
2013-01-27 07:15:00,17.8,-8.5,28.35,SE,124,3.0,6.0,30,0.00,CLR,,0.00,WeatherDisplay:10.37,2013-01-27 12:15:00,
2013-01-27 07:20:00,17.8,-8.5,28.35,SE,124,3.0,6.0,30,0.00,CLR,,0.00,WeatherDisplay:10.37,2013-01-27 12:20:00,
2013-01-27 07:25:00,17.8,-8.5,28.35,SE,130,2.0,5.0,30,0.00,CLR,,0.00,WeatherDisplay:10.37,2013-01-27 12:25:00,
2013-01-27 07:30:00,17.8,-8.5,28.35,SE,124,2.0,4.0,30,0.00,CLR,,0.00,WeatherDisplay:10.37,2013-01-27 12:30:00,
2013-01-27 07:35:00,17.8,-8.5,28.35,ESE,118,2.0,5.0,30,0.00,CLR,,0.00,WeatherDisplay:10.37,2013-01-27 12:35:00,
2013-01-27 07:40:00,17.8,-8.5,28.35,SE,126,2.0,4.0,30,0.00,CLR,,0.00,WeatherDisplay:10.37,2013-01-27 12:40:00,
2013-01-27 07:45:00,18.0,-8.3,28.35,SE,129,0.0,6.0,30,0.00,CLR,,0.00,WeatherDisplay:10.37,2013-01-27 12:45:00,
2013-01-27 07:50:00,18.0,-8.3,28.35,SE,129,2.0,5.0,30,0.00,CLR,,0.00,WeatherDisplay:10.37,2013-01-27 12:50:00,
2013-01-27 07:55:00,18.0,-8.3,28.35,SE,143,2.0,5.0,30,0.00,CLR,,0.00,WeatherDisplay:10.37,2013-01-27 12:55:00,
2013-01-27 08:00:00,18.0,-8.3,28.35,SE,144,0.0,4.0,30,0.00,CLR,,0.00,WeatherDisplay:10.37,2013-01-27 13:00:00,
2013-01-27 08:05:00,18.0,-8.3,28.35,SE,136,2.0,4.0,30,0.00,CLR,,0.00,WeatherDisplay:10.37,2013-01-27 13:05:00,
2013-01-27 08:10:00,18.1,-8.2,28.38,ESE,118,2.0,4.0,30,0.00,CLR,,0.00,WeatherDisplay:10.37,2013-01-27 13:10:00,
2013-01-27 08:15:00,18.3,-8.1,28.38,ESE,112,2.0,4.0,30,0.00,CLR,,0.00,WeatherDisplay:10.37,2013-01-27 13:15:00,
2013-01-27 08:20:00,18.5,-7.8,28.38,ESE,113,0.0,5.0,30,0.00,CLR,,0.00,WeatherDisplay:10.37,2013-01-27 13:20:00,
2013-01-27 08:25:00,19.0,-7.4,28.38,SE,124,1.0,5.0,30,0.00,CLR,,0.00,WeatherDisplay:10.37,2013-01-27 13:25:00,
2013-01-27 08:30:00,19.4,-8.5,28.38,SE,135,3.0,5.0,28,0.00,CLR,,0.00,WeatherDisplay:10.37,2013-01-27 13:30:00,
2013-01-27 08:40:00,20.1,-8.6,28.35,SE,138,2.0,5.0,27,0.00,CLR,,0.00,WeatherDisplay:10.37,2013-01-27 13:40:00,
2013-01-27 08:45:00,20.4,-8.3,28.35,SE,124,2.0,4.0,27,0.00,CLR,,0.00,WeatherDisplay:10.37,2013-01-27 13:45:00,
2013-01-27 08:50:00,20.7,-9.7,28.35,ESE,122,3.0,6.0,25,0.00,CLR,,0.00,WeatherDisplay:10.37,2013-01-27 13:50:00,
2013-01-27 08:55:00,20.8,-9.5,28.35,ESE,109,5.0,8.0,25,0.00,CLR,,0.00,WeatherDisplay:10.37,2013-01-27 13:55:00,
2013-01-27 09:00:00,21.0,-9.4,28.35,ESE,108,3.0,6.0,25,0.00,CLR,,0.00,WeatherDisplay:10.37,2013-01-27 14:00:00,
2013-01-27 09:05:00,21.2,-9.2,28.35,ESE,119,3.0,6.0,25,0.00,CLR,,0.00,WeatherDisplay:10.37,2013-01-27 14:05:00,
2013-01-27 09:10:00,21.6,-8.9,28.35,ESE,118,3.0,6.0,25,0.00,CLR,,0.00,WeatherDisplay:10.37,2013-01-27 14:10:00,
2013-01-27 09:15:00,22.1,-8.5,28.35,SE,126,2.0,6.0,25,0.00,CLR,,0.00,WeatherDisplay:10.37,2013-01-27 14:15:00,
2013-01-27 09:20:00,22.6,-8.0,28.35,SE,126,3.0,6.0,25,0.00,CLR,,0.00,WeatherDisplay:10.37,2013-01-27 14:20:00,
2013-01-27 09:25:00,23.1,-7.6,28.35,ESE,117,5.0,6.0,25,0.00,CLR,,0.00,WeatherDisplay:10.37,2013-01-27 14:25:00,
2013-01-27 09:30:00,23.5,-8.0,28.35,ESE,121,5.0,6.0,24,0.00,CLR,,0.00,WeatherDisplay:10.37,2013-01-27 14:30:00,
2013-01-27 09:40:00,24.0,-7.6,28.35,ESE,115,3.0,6.0,24,0.00,CLR,,0.00,WeatherDisplay:10.37,2013-01-27 14:40:00,
2013-01-27 09:45:00,24.1,-7.6,28.35,ESE,121,5.0,7.0,24,0.00,CLR,,0.00,WeatherDisplay:10.37,2013-01-27 14:45:00,
2013-01-27 09:50:00,24.1,-7.6,28.35,ESE,121,7.0,8.0,24,0.00,CLR,,0.00,WeatherDisplay:10.37,2013-01-27 14:50:00,
2013-01-27 09:55:00,24.4,-7.3,28.32,ESE,122,5.0,7.0,24,0.00,CLR,,0.00,WeatherDisplay:10.37,2013-01-27 14:55:00,
2013-01-27 10:00:00,24.8,-7.0,28.32,SE,127,3.0,8.0,24,0.00,CLR,,0.00,WeatherDisplay:10.37,2013-01-27 15:00:00,
2013-01-27 10:05:00,25.3,-6.5,28.32,SE,137,3.0,8.0,24,0.00,CLR,,0.00,WeatherDisplay:10.37,2013-01-27 15:05:00,
2013-01-27 10:10:00,25.7,-6.2,28.32,SE,139,5.0,8.0,24,0.00,CLR,,0.00,WeatherDisplay:10.37,2013-01-27 15:10:00,
2013-01-27 10:15:00,26.2,-5.7,28.32,SE,132,3.0,6.0,24,0.00,CLR,,0.00,WeatherDisplay:10.37,2013-01-27 15:15:00,
2013-01-27 10:20:00,26.6,-5.4,28.32,SE,126,3.0,6.0,24,0.00,CLR,,0.00,WeatherDisplay:10.37,2013-01-27 15:20:00,
2013-01-27 10:30:00,27.0,-6.0,28.35,SE,125,5.0,6.0,23,0.00,CLR,,0.00,WeatherDisplay:10.37,2013-01-27 15:30:00,
2013-01-27 10:40:00,27.4,-5.6,28.35,SE,132,2.0,6.0,23,0.00,CLR,,0.00,WeatherDisplay:10.37,2013-01-27 15:40:00,
2013-01-27 10:50:00,27.9,-5.2,28.35,ESE,115,3.0,6.0,23,0.00,CLR,,0.00,WeatherDisplay:10.37,2013-01-27 15:50:00,
2013-01-27 10:55:00,28.4,-4.8,28.35,SE,128,5.0,6.0,23,0.00,CLR,,0.00,WeatherDisplay:10.37,2013-01-27 15:55:00,
2013-01-27 11:00:00,28.7,-4.5,28.35,SE,138,3.0,6.0,23,0.00,CLR,,0.00,WeatherDisplay:10.37,2013-01-27 16:00:00,
2013-01-27 11:05:00,29.5,-3.8,28.35,SE,137,5.0,6.0,23,0.00,CLR,,0.00,WeatherDisplay:10.37,2013-01-27 16:05:00,
2013-01-27 11:10:00,30.0,-3.4,28.35,SE,125,3.0,6.0,23,0.00,CLR,,0.00,WeatherDisplay:10.37,2013-01-27 16:10:00,
2013-01-27 11:15:00,30.0,-3.4,28.35,ESE,115,5.0,6.0,23,0.00,CLR,,0.00,WeatherDisplay:10.37,2013-01-27 16:15:00,
2013-01-27 11:20:00,30.2,-3.2,28.35,ESE,110,5.0,6.0,23,0.00,CLR,,0.00,WeatherDisplay:10.37,2013-01-27 16:20:00,
2013-01-27 11:25:00,31.3,-2.3,28.35,ESE,120,3.0,6.0,23,0.00,CLR,,0.00,WeatherDisplay:10.37,2013-01-27 16:25:00,
2013-01-27 11:35:00,32.5,-1.2,28.35,ESE,110,3.0,8.0,23,0.00,CLR,,0.00,WeatherDisplay:10.37,2013-01-27 16:35:00,
2013-01-27 11:40:00,32.7,-1.1,28.32,ESE,115,3.0,6.0,23,0.00,CLR,,0.00,WeatherDisplay:10.37,2013-01-27 16:40:00,
2013-01-27 11:45:00,33.1,-0.8,28.32,ESE,121,3.0,7.0,23,0.00,CLR,,0.00,WeatherDisplay:10.37,2013-01-27 16:45:00,
2013-01-27 11:50:00,33.5,-0.4,28.32,SE,125,3.0,6.0,23,0.00,CLR,,0.00,WeatherDisplay:10.37,2013-01-27 16:50:00,
2013-01-27 11:55:00,33.6,-0.3,28.32,SE,126,3.0,6.0,23,0.00,CLR,,0.00,WeatherDisplay:10.37,2013-01-27 16:55:00,
2013-01-27 12:00:00,34.2,-0.8,28.32,SE,127,5.0,6.0,22,0.00,CLR,,0.00,WeatherDisplay:10.37,2013-01-27 17:00:00,
2013-01-27 12:10:00,34.5,-0.5,28.32,ESE,120,3.0,6.0,22,0.00,CLR,,0.00,WeatherDisplay:10.37,2013-01-27 17:10:00,
2013-01-27 12:20:00,33.6,-0.3,28.32,ESE,116,3.0,6.0,23,0.00,CLR,,0.00,WeatherDisplay:10.37,2013-01-27 17:20:00,
2013-01-27 12:25:00,34.0,-1.0,28.32,SE,126,2.0,6.0,22,0.00,CLR,,0.00,WeatherDisplay:10.37,2013-01-27 17:25:00,
2013-01-27 12:30:00,34.4,-0.6,28.32,SE,127,3.0,6.0,22,0.00,CLR,,0.00,WeatherDisplay:10.37,2013-01-27 17:30:00,
2013-01-27 12:35:00,35.1,0.0,28.32,SE,132,3.0,6.0,22,0.00,CLR,,0.00,WeatherDisplay:10.37,2013-01-27 17:35:00,
2013-01-27 12:40:00,35.5,0.4,28.29,SE,140,3.0,6.0,22,0.00,CLR,,0.00,WeatherDisplay:10.37,2013-01-27 17:40:00,
2013-01-27 12:50:00,34.3,-0.7,28.29,East,99,5.0,6.0,22,0.00,CLR,,0.00,WeatherDisplay:10.37,2013-01-27 17:50:00,
2013-01-27 12:55:00,34.3,-0.7,28.29,ESE,117,3.0,8.0,22,0.00,CLR,,0.00,WeatherDisplay:10.37,2013-01-27 17:55:00,
2013-01-27 13:00:00,34.7,-0.4,28.29,ESE,121,2.0,6.0,22,0.00,CLR,,0.00,WeatherDisplay:10.37,2013-01-27 18:00:00,
2013-01-27 13:05:00,33.8,-1.1,28.29,East,96,3.0,6.0,22,0.00,CLR,,0.00,WeatherDisplay:10.37,2013-01-27 18:05:00,
2013-01-27 13:10:00,33.8,-1.1,28.26,East,96,3.0,6.0,22,0.00,CLR,,0.00,WeatherDisplay:10.37,2013-01-27 18:10:00,
2013-01-27 13:15:00,34.2,-0.8,28.26,ESE,113,3.0,6.0,22,0.00,CLR,,0.00,WeatherDisplay:10.37,2013-01-27 18:15:00,
2013-01-27 13:20:00,34.5,-0.5,28.26,SE,132,3.0,6.0,22,0.00,CLR,,0.00,WeatherDisplay:10.37,2013-01-27 18:20:00,
2013-01-27 13:25:00,35.1,0.0,28.26,SE,146,5.0,7.0,22,0.00,CLR,,0.00,WeatherDisplay:10.37,2013-01-27 18:25:00,
2013-01-27 13:30:00,35.6,0.4,28.26,SE,128,3.0,6.0,22,0.00,CLR,,0.00,WeatherDisplay:10.37,2013-01-27 18:30:00,
2013-01-27 13:40:00,34.8,-0.2,28.26,ESE,104,3.0,7.0,22,0.00,CLR,,0.00,WeatherDisplay:10.37,2013-01-27 18:40:00,
2013-01-27 13:45:00,35.5,0.3,28.26,ESE,121,3.0,6.0,22,0.00,CLR,,0.00,WeatherDisplay:10.37,2013-01-27 18:45:00,
2013-01-27 13:50:00,35.7,0.5,28.26,SE,128,5.0,7.0,22,0.00,CLR,,0.00,WeatherDisplay:10.37,2013-01-27 18:50:00,
2013-01-27 13:55:00,35.4,0.3,28.23,ESE,120,3.0,6.0,22,0.00,CLR,,0.00,WeatherDisplay:10.37,2013-01-27 18:55:00,
2013-01-27 14:00:00,35.1,0.0,28.23,ESE,106,5.0,8.0,22,0.04,RA,,0.04,WeatherDisplay:10.37,2013-01-27 19:00:00,
2013-01-27 14:05:00,34.5,-0.5,28.23,East,94,5.0,8.0,22,0.00,RA,,0.04,WeatherDisplay:10.37,2013-01-27 19:05:00,
2013-01-27 14:10:00,35.2,0.1,28.20,ESE,105,5.0,6.0,22,0.00,,,0.04,WeatherDisplay:10.37,2013-01-27 19:10:00,
2013-01-27 14:20:00,36.1,0.8,28.20,SE,126,5.0,6.0,22,0.00,CLR,,0.04,WeatherDisplay:10.37,2013-01-27 19:20:00,
2013-01-27 14:25:00,35.8,0.6,28.23,ESE,123,3.0,6.0,22,0.00,CLR,,0.04,WeatherDisplay:10.37,2013-01-27 19:25:00,
2013-01-27 14:30:00,35.8,0.6,28.23,SE,133,3.0,6.0,22,0.00,CLR,,0.04,WeatherDisplay:10.37,2013-01-27 19:30:00,
2013-01-27 14:40:00,35.2,0.1,28.20,SE,129,5.0,7.0,22,0.00,CLR,,0.04,WeatherDisplay:10.37,2013-01-27 19:40:00,
2013-01-27 14:45:00,35.2,0.1,28.20,ESE,118,5.0,8.0,22,0.00,CLR,,0.04,WeatherDisplay:10.37,2013-01-27 19:45:00,
2013-01-27 14:50:00,35.9,0.6,28.20,ESE,118,5.0,6.0,22,0.00,CLR,,0.04,WeatherDisplay:10.37,2013-01-27 19:50:00,
2013-01-27 14:55:00,36.0,0.8,28.17,SE,129,5.0,8.0,22,0.00,CLR,,0.04,WeatherDisplay:10.37,2013-01-27 19:55:00,
2013-01-27 15:00:00,36.0,0.7,28.17,ESE,123,3.0,8.0,22,0.00,CLR,,0.04,WeatherDisplay:10.37,2013-01-27 20:00:00,
2013-01-27 15:05:00,35.8,0.6,28.17,ESE,118,6.0,8.0,22,0.00,CLR,,0.04,WeatherDisplay:10.37,2013-01-27 20:05:00,
2013-01-27 15:10:00,35.6,0.4,28.17,ESE,119,5.0,7.0,22,0.00,CLR,,0.04,WeatherDisplay:10.37,2013-01-27 20:10:00,
2013-01-27 15:15:00,35.4,0.3,28.17,SE,129,6.0,9.0,22,0.00,CLR,,0.04,WeatherDisplay:10.37,2013-01-27 20:15:00,
2013-01-27 15:20:00,35.2,0.1,28.17,SE,134,5.0,8.0,22,0.00,CLR,,0.04,WeatherDisplay:10.37,2013-01-27 20:20:00,
2013-01-27 15:25:00,35.0,-0.1,28.17,SE,133,3.0,6.0,22,0.00,CLR,,0.04,WeatherDisplay:10.37,2013-01-27 20:25:00,
2013-01-27 15:30:00,34.7,-0.3,28.17,SE,129,3.0,6.0,22,0.00,CLR,,0.04,WeatherDisplay:10.37,2013-01-27 20:30:00,
2013-01-27 15:35:00,34.4,-0.6,28.17,SE,131,3.0,6.0,22,0.00,CLR,,0.04,WeatherDisplay:10.37,2013-01-27 20:35:00,
2013-01-27 15:40:00,34.4,-0.6,28.17,SE,131,5.0,6.0,22,0.00,CLR,,0.04,WeatherDisplay:10.37,2013-01-27 20:40:00,
2013-01-27 15:45:00,34.3,-0.6,28.17,SE,125,5.0,8.0,22,0.00,CLR,,0.04,WeatherDisplay:10.37,2013-01-27 20:45:00,
2013-01-27 15:50:00,34.3,-0.6,28.17,SE,125,3.0,7.0,22,0.00,CLR,,0.04,WeatherDisplay:10.37,2013-01-27 20:50:00,
2013-01-27 15:55:00,34.0,-1.0,28.14,ESE,115,5.0,8.0,22,0.00,CLR,,0.04,WeatherDisplay:10.37,2013-01-27 20:55:00,
2013-01-27 16:00:00,33.8,-1.1,28.14,ESE,112,6.0,8.0,22,0.00,CLR,,0.04,WeatherDisplay:10.37,2013-01-27 21:00:00,
2013-01-27 16:10:00,33.6,-0.3,28.17,East,92,6.0,8.0,23,0.00,CLR,,0.04,WeatherDisplay:10.37,2013-01-27 21:10:00,
2013-01-27 16:15:00,33.8,-1.1,28.17,East,94,5.0,6.0,22,0.00,CLR,,0.04,WeatherDisplay:10.37,2013-01-27 21:15:00,
2013-01-27 16:20:00,33.6,-0.3,28.17,East,97,5.0,8.0,23,0.00,CLR,,0.04,WeatherDisplay:10.37,2013-01-27 21:20:00,
2013-01-27 16:25:00,33.6,-0.3,28.17,ESE,106,5.0,8.0,23,0.00,CLR,,0.04,WeatherDisplay:10.37,2013-01-27 21:25:00,
2013-01-27 16:30:00,33.6,-0.3,28.17,ESE,116,5.0,8.0,23,0.00,CLR,,0.04,WeatherDisplay:10.37,2013-01-27 21:30:00,
2013-01-27 16:40:00,33.4,-0.5,28.17,ESE,115,5.0,7.0,23,0.00,CLR,,0.04,WeatherDisplay:10.37,2013-01-27 21:40:00,
2013-01-27 16:45:00,33.4,-0.5,28.17,ESE,114,3.0,6.0,23,0.00,CLR,,0.04,WeatherDisplay:10.37,2013-01-27 21:45:00,
2013-01-27 16:50:00,33.4,-0.5,28.17,ESE,110,3.0,7.0,23,0.00,CLR,,0.04,WeatherDisplay:10.37,2013-01-27 21:50:00,
2013-01-27 17:00:00,33.4,-0.5,28.17,ESE,115,5.0,6.0,23,0.00,CLR,,0.04,WeatherDisplay:10.37,2013-01-27 22:00:00,
2013-01-27 17:05:00,33.4,-0.5,28.17,ESE,118,3.0,6.0,23,0.00,CLR,,0.04,WeatherDisplay:10.37,2013-01-27 22:05:00,
2013-01-27 17:10:00,33.4,-0.5,28.17,ESE,115,3.0,6.0,23,0.00,CLR,,0.04,WeatherDisplay:10.37,2013-01-27 22:10:00,
2013-01-27 17:20:00,33.3,-0.6,28.17,ESE,106,3.0,9.0,23,0.00,CLR,,0.04,WeatherDisplay:10.37,2013-01-27 22:20:00,
2013-01-27 17:25:00,33.1,-0.7,28.17,ESE,103,5.0,7.0,23,0.00,CLR,,0.04,WeatherDisplay:10.37,2013-01-27 22:25:00,
2013-01-27 17:30:00,33.1,0.1,28.17,ESE,110,6.0,9.0,24,0.00,CLR,,0.04,WeatherDisplay:10.37,2013-01-27 22:30:00,
2013-01-27 17:35:00,33.1,-0.8,28.17,ESE,116,6.0,8.0,23,0.00,CLR,,0.04,WeatherDisplay:10.37,2013-01-27 22:35:00,
2013-01-27 17:40:00,33.1,-0.8,28.14,ESE,117,5.0,8.0,23,0.00,CLR,,0.04,WeatherDisplay:10.37,2013-01-27 22:40:00,
2013-01-27 17:45:00,33.1,1.0,28.14,ESE,122,3.0,8.0,25,0.00,CLR,,0.04,WeatherDisplay:10.37,2013-01-27 22:45:00,
2013-01-27 17:50:00,33.1,1.0,28.14,ESE,122,3.0,6.0,25,0.00,CLR,,0.04,WeatherDisplay:10.37,2013-01-27 22:50:00,
2013-01-27 18:00:00,33.1,1.0,28.17,ESE,114,2.0,6.0,25,0.00,CLR,,0.04,WeatherDisplay:10.37,2013-01-27 23:00:00,
2013-01-27 18:05:00,33.0,3.4,28.17,ESE,119,5.0,8.0,28,0.00,CLR,,0.04,WeatherDisplay:10.37,2013-01-27 23:05:00,
2013-01-27 18:10:00,32.9,3.3,28.14,ESE,116,5.0,6.0,28,0.00,CLR,,0.04,WeatherDisplay:10.37,2013-01-27 23:10:00,
2013-01-27 18:15:00,32.9,4.1,28.14,ESE,107,5.0,6.0,29,0.00,CLR,,0.04,WeatherDisplay:10.37,2013-01-27 23:15:00,
2013-01-27 18:20:00,32.9,3.3,28.14,East,87,3.0,6.0,28,0.00,CLR,,0.04,WeatherDisplay:10.37,2013-01-27 23:20:00,
2013-01-27 18:25:00,33.1,3.5,28.17,East,89,2.0,6.0,28,0.00,CLR,,0.04,WeatherDisplay:10.37,2013-01-27 23:25:00,
2013-01-27 18:30:00,33.1,5.0,28.17,East,91,3.0,6.0,30,0.00,CLR,,0.04,WeatherDisplay:10.37,2013-01-27 23:30:00,
2013-01-27 18:35:00,33.1,5.0,28.17,East,91,2.0,6.0,30,0.00,CLR,,0.04,WeatherDisplay:10.37,2013-01-27 23:35:00,
2013-01-27 18:40:00,33.1,5.7,28.14,East,101,5.0,6.0,31,0.00,CLR,,0.04,WeatherDisplay:10.37,2013-01-27 23:40:00,
2013-01-27 18:45:00,32.9,5.5,28.14,East,92,3.0,6.0,31,0.00,CLR,,0.04,WeatherDisplay:10.37,2013-01-27 23:45:00,
2013-01-27 18:55:00,33.0,5.6,28.17,East,93,3.0,5.0,31,0.00,CLR,,0.04,WeatherDisplay:10.37,2013-01-27 23:55:00,
2013-01-27 19:00:00,33.0,5.6,28.17,East,91,3.0,5.0,31,0.00,CLR,,0.04,WeatherDisplay:10.37,2013-01-28 00:00:00,
2013-01-27 19:10:00,32.9,5.5,28.17,East,81,5.0,6.0,31,0.00,CLR,,0.04,WeatherDisplay:10.37,2013-01-28 00:10:00,
2013-01-27 19:15:00,32.9,6.2,28.17,East,81,3.0,4.0,32,0.00,CLR,,0.04,WeatherDisplay:10.37,2013-01-28 00:15:00,
2013-01-27 19:20:00,32.9,6.9,28.17,East,82,3.0,6.0,33,0.00,CLR,,0.04,WeatherDisplay:10.37,2013-01-28 00:20:00,
2013-01-27 19:25:00,32.9,6.9,28.17,East,85,5.0,6.0,33,0.00,CLR,,0.04,WeatherDisplay:10.37,2013-01-28 00:25:00,
2013-01-27 19:30:00,32.9,7.6,28.17,East,85,3.0,6.0,34,0.00,CLR,,0.04,WeatherDisplay:10.37,2013-01-28 00:30:00,
2013-01-27 19:35:00,32.9,7.6,28.17,East,83,5.0,6.0,34,0.00,CLR,,0.04,WeatherDisplay:10.37,2013-01-28 00:35:00,
2013-01-27 19:40:00,32.9,8.2,28.20,East,90,3.0,6.0,35,0.00,CLR,,0.04,WeatherDisplay:10.37,2013-01-28 00:40:00,
2013-01-27 19:45:00,32.9,8.8,28.20,East,83,3.0,6.0,36,0.00,CLR,,0.04,WeatherDisplay:10.37,2013-01-28 00:45:00,
2013-01-27 19:50:00,32.9,9.4,28.20,East,93,3.0,6.0,37,0.00,CLR,,0.04,WeatherDisplay:10.37,2013-01-28 00:50:00,
2013-01-27 19:55:00,32.7,9.9,28.17,ESE,109,6.0,8.0,38,0.00,CLR,,0.04,WeatherDisplay:10.37,2013-01-28 00:55:00,
2013-01-27 20:05:00,32.7,11.0,28.17,ESE,118,6.0,8.0,40,0.00,CLR,,0.04,WeatherDisplay:10.37,2013-01-28 01:05:00,
2013-01-27 20:10:00,32.7,11.0,28.14,ESE,119,5.0,8.0,40,0.00,CLR,,0.04,WeatherDisplay:10.37,2013-01-28 01:10:00,
2013-01-27 20:15:00,32.7,11.0,28.14,ESE,115,6.0,8.0,40,0.00,CLR,,0.04,WeatherDisplay:10.37,2013-01-28 01:15:00,
2013-01-27 20:20:00,32.7,11.0,28.14,SE,125,5.0,8.0,40,0.00,CLR,,0.04,WeatherDisplay:10.37,2013-01-28 01:20:00,
2013-01-27 20:30:00,32.9,11.7,28.14,SE,125,5.0,8.0,41,0.00,CLR,,0.04,WeatherDisplay:10.37,2013-01-28 01:30:00,
2013-01-27 20:35:00,32.9,11.7,28.14,ESE,109,5.0,8.0,41,0.00,CLR,,0.04,WeatherDisplay:10.37,2013-01-28 01:35:00,
2013-01-27 20:40:00,32.9,11.7,28.11,ESE,111,5.0,8.0,41,0.00,CLR,,0.04,WeatherDisplay:10.37,2013-01-28 01:40:00,
2013-01-27 20:45:00,32.9,11.7,28.11,SE,131,5.0,9.0,41,0.00,CLR,,0.04,WeatherDisplay:10.37,2013-01-28 01:45:00,
2013-01-27 20:50:00,33.1,11.9,28.11,SE,129,5.0,8.0,41,0.00,CLR,,0.04,WeatherDisplay:10.37,2013-01-28 01:50:00,
2013-01-27 20:55:00,33.1,11.9,28.11,ESE,121,5.0,6.0,41,0.00,CLR,,0.04,WeatherDisplay:10.37,2013-01-28 01:55:00,
2013-01-27 21:00:00,33.1,11.9,28.11,SE,125,6.0,9.0,41,0.00,CLR,,0.04,WeatherDisplay:10.37,2013-01-28 02:00:00,
2013-01-27 21:05:00,33.1,11.9,28.11,SE,136,5.0,10.0,41,0.00,CLR,,0.04,WeatherDisplay:10.37,2013-01-28 02:05:00,
2013-01-27 21:10:00,33.1,11.9,28.11,SE,141,6.0,10.0,41,0.00,CLR,,0.04,WeatherDisplay:10.37,2013-01-28 02:10:00,
2013-01-27 21:15:00,33.1,11.9,28.11,ESE,122,5.0,9.0,41,0.00,CLR,,0.04,WeatherDisplay:10.37,2013-01-28 02:15:00,
2013-01-27 21:20:00,33.3,12.1,28.11,SE,124,5.0,9.0,41,0.00,CLR,,0.04,WeatherDisplay:10.37,2013-01-28 02:20:00,
2013-01-27 21:25:00,33.3,12.1,28.08,SE,125,3.0,9.0,41,0.00,CLR,,0.04,WeatherDisplay:10.37,2013-01-28 02:25:00,
2013-01-27 21:30:00,33.3,12.1,28.08,SE,127,5.0,8.0,41,0.00,CLR,,0.04,WeatherDisplay:10.37,2013-01-28 02:30:00,
2013-01-27 21:35:00,33.3,12.1,28.08,SE,132,6.0,7.0,41,0.00,CLR,,0.04,WeatherDisplay:10.37,2013-01-28 02:35:00,
2013-01-27 21:40:00,33.4,12.2,28.08,SE,138,5.0,10.0,41,0.00,CLR,,0.04,WeatherDisplay:10.37,2013-01-28 02:40:00,
2013-01-27 21:45:00,33.4,12.2,28.08,SSE,151,6.0,9.0,41,0.00,CLR,,0.04,WeatherDisplay:10.37,2013-01-28 02:45:00,
2013-01-27 21:50:00,33.4,12.8,28.08,SSE,148,5.0,12.0,42,0.00,CLR,,0.04,WeatherDisplay:10.37,2013-01-28 02:50:00,
2013-01-27 21:55:00,33.6,12.9,28.05,SE,143,5.0,8.0,42,0.00,CLR,,0.04,WeatherDisplay:10.37,2013-01-28 02:55:00,
2013-01-27 22:00:00,33.6,12.9,28.05,SE,145,7.0,8.0,42,0.00,CLR,,0.04,WeatherDisplay:10.37,2013-01-28 03:00:00,
2013-01-27 22:05:00,33.6,12.9,28.05,SE,145,6.0,8.0,42,0.00,CLR,,0.04,WeatherDisplay:10.37,2013-01-28 03:05:00,
2013-01-27 22:10:00,33.8,13.1,28.05,SE,145,6.0,13.0,42,0.00,CLR,,0.04,WeatherDisplay:10.37,2013-01-28 03:10:00,
2013-01-27 22:15:00,33.8,13.1,28.05,SE,139,7.0,13.0,42,0.00,CLR,,0.04,WeatherDisplay:10.37,2013-01-28 03:15:00,
2013-01-27 22:20:00,33.8,13.1,28.05,SSE,148,7.0,12.0,42,0.00,CLR,,0.04,WeatherDisplay:10.37,2013-01-28 03:20:00,
2013-01-27 22:25:00,33.8,13.1,28.05,SSE,153,6.0,9.0,42,0.00,CLR,,0.04,WeatherDisplay:10.37,2013-01-28 03:25:00,
2013-01-27 22:35:00,34.0,13.3,28.05,SSE,151,6.0,10.0,42,0.00,CLR,,0.04,WeatherDisplay:10.37,2013-01-28 03:35:00,
2013-01-27 22:40:00,34.0,13.3,28.05,SSE,149,5.0,8.0,42,0.00,CLR,,0.04,WeatherDisplay:10.37,2013-01-28 03:40:00,
2013-01-27 22:45:00,34.0,13.3,28.05,SSE,156,3.0,8.0,42,0.00,CLR,,0.04,WeatherDisplay:10.37,2013-01-28 03:45:00,
2013-01-27 22:50:00,34.2,13.4,28.05,SSE,150,5.0,9.0,42,0.00,CLR,,0.04,WeatherDisplay:10.37,2013-01-28 03:50:00,
2013-01-27 22:55:00,34.3,14.1,28.05,SSE,152,7.0,12.0,43,0.00,CLR,,0.04,WeatherDisplay:10.37,2013-01-28 03:55:00,
2013-01-27 23:05:00,34.5,14.3,28.05,SSE,155,5.0,8.0,43,0.00,CLR,,0.04,WeatherDisplay:10.37,2013-01-28 04:05:00,
2013-01-27 23:10:00,34.5,14.3,28.05,SSE,163,5.0,10.0,43,0.00,CLR,,0.04,WeatherDisplay:10.37,2013-01-28 04:10:00,
2013-01-27 23:15:00,34.7,14.5,28.05,SSE,165,6.0,11.0,43,0.00,CLR,,0.04,WeatherDisplay:10.37,2013-01-28 04:15:00,
2013-01-27 23:20:00,34.7,14.5,28.05,SSE,166,6.0,11.0,43,0.00,CLR,,0.04,WeatherDisplay:10.37,2013-01-28 04:20:00,
2013-01-27 23:25:00,34.7,14.5,28.02,SSE,164,6.0,7.0,43,0.00,CLR,,0.04,WeatherDisplay:10.37,2013-01-28 04:25:00,
2013-01-27 23:30:00,34.7,14.5,28.02,SSE,163,5.0,8.0,43,0.00,CLR,,0.04,WeatherDisplay:10.37,2013-01-28 04:30:00,
2013-01-27 23:35:00,34.9,14.6,28.02,SSE,164,5.0,8.0,43,0.00,CLR,,0.04,WeatherDisplay:10.37,2013-01-28 04:35:00,
2013-01-27 23:40:00,34.9,14.6,28.02,SSE,162,5.0,9.0,43,0.00,CLR,,0.04,WeatherDisplay:10.37,2013-01-28 04:40:00,
2013-01-27 23:45:00,35.1,14.8,28.02,SSE,165,3.0,9.0,43,0.00,CLR,,0.04,WeatherDisplay:10.37,2013-01-28 04:45:00,
2013-01-27 23:50:00,35.2,15.5,28.02,SSE,161,5.0,8.0,44,0.00,CLR,,0.04,WeatherDisplay:10.37,2013-01-28 04:50:00,
2013-01-27 23:55:00,35.2,15.5,28.02,SSE,161,3.0,8.0,44,0.00,CLR,,0.04,WeatherDisplay:10.37,2013-01-28 04:55:00,